Terminal Aerodrome Forecast
Issued by NWS Twin Cities, MN

Home | Current Version | Previous Version | Graphics & Text | Print | Product List | Glossary On
Versions: 1 2 3 4 5 6 7 8 9 10 11 12 13 14 15 16 17 18 19 20 21 22 23 24 25 26 27
000
FTUS43 KMPX 241738
TAFMSP
TAF
KMSP 241738Z 2418/2524 31018G30KT P6SM SCT200
     FM250000 32009KT P6SM FEW030 BKN200
     FM250900 35006KT P6SM FEW030 OVC100
     FM251200 03007KT P6SM OVC060=

USA.gov is the U.S. government's official web portal to all federal, state and local government web resources and services.